createdAt,value
2022-10-29T10:34:44.989Z,68
2022-10-29T10:35:44.942Z,67.53
2022-10-29T10:36:45.035Z,67.93
2022-10-29T10:37:45.077Z,67.73
2022-10-29T10:38:44.935Z,67.7
2022-10-29T10:39:44.886Z,67.4
2022-10-29T10:40:44.883Z,67.5
2022-10-29T10:41:44.872Z,67.5
2022-10-29T10:42:44.861Z,67.3
2022-10-29T10:43:44.839Z,67.4
2022-10-29T10:44:44.811Z,67.23
2022-10-29T10:45:44.807Z,67.43
2022-10-29T10:46:44.810Z,67.6
2022-10-29T10:47:44.882Z,67.7
2022-10-29T10:48:44.772Z,67.5
2022-10-29T10:49:45.615Z,66.77
2022-10-29T10:50:44.749Z,66.67
2022-10-29T10:51:44.732Z,67
2022-10-29T10:52:44.777Z,67.6
2022-10-29T10:53:45.760Z,67.5
2022-10-29T10:54:44.715Z,67.07
2022-10-29T10:55:44.859Z,66.24
2022-10-29T10:56:44.872Z,66.04
2022-10-29T10:57:44.737Z,66.14
2022-10-29T10:58:44.830Z,66.14
2022-10-29T10:59:44.672Z,66.14
2022-10-29T11:00:44.681Z,65.61
2022-10-29T11:01:44.782Z,65.18
2022-10-29T11:02:44.808Z,64.45
2022-10-29T11:03:44.685Z,63.95
2022-10-29T11:04:44.749Z,63.98
2022-10-29T11:05:44.952Z,64.65
2022-10-29T11:06:44.649Z,63.82
2022-10-29T11:07:44.623Z,64.09
2022-10-29T11:08:44.575Z,64.58
2022-10-29T11:09:44.543Z,64.88
2022-10-29T11:10:44.573Z,64.28
2022-10-29T11:11:44.552Z,64.78
2022-10-29T11:12:44.513Z,65.11
2022-10-29T11:13:44.611Z,64.28
2022-10-29T11:14:44.514Z,63.95
2022-10-29T11:15:44.582Z,63.56
2022-10-29T11:16:44.520Z,63.76
2022-10-29T11:17:44.579Z,63.66
2022-10-29T11:18:44.693Z,63.69
2022-10-29T11:19:44.498Z,64.18
2022-10-29T11:20:44.448Z,64.81
2022-10-29T11:21:44.560Z,0
2022-10-29T11:22:44.456Z,64.91
2022-10-29T11:23:44.440Z,0
2022-10-29T11:24:44.508Z,0
2022-10-29T11:25:44.470Z,0
2022-10-29T11:26:44.376Z,0
2022-10-29T11:27:44.353Z,63.03
2022-10-29T11:28:44.535Z,0
2022-10-29T11:29:44.534Z,0
2022-10-29T11:30:44.424Z,0
2022-10-29T11:31:44.384Z,0
2022-10-29T11:32:44.314Z,0
2022-10-29T11:33:44.297Z,0
2022-10-29T11:34:44.281Z,0
2022-10-29T11:35:44.319Z,0
2022-10-29T11:36:44.266Z,0
2022-10-29T11:37:44.264Z,0
2022-10-29T11:38:44.275Z,0
2022-10-29T11:39:45.236Z,0
2022-10-29T11:40:44.229Z,0
2022-10-29T11:41:44.263Z,0
2022-10-29T11:42:44.217Z,0
2022-10-29T11:43:44.220Z,0
2022-10-29T11:44:44.186Z,0
2022-10-29T11:45:44.175Z,0
2022-10-29T11:46:44.215Z,0
2022-10-29T11:47:44.172Z,0
2022-10-29T11:48:44.189Z,0
2022-10-29T11:49:44.154Z,0
2022-10-29T11:50:44.209Z,0
2022-10-29T11:51:45.118Z,0
2022-10-29T11:52:44.117Z,0
2022-10-29T11:53:44.220Z,0
2022-10-29T11:54:44.088Z,0
2022-10-29T11:55:44.092Z,0
2022-10-29T11:56:44.095Z,0
2022-10-29T11:57:44.068Z,0
2022-10-29T11:58:44.033Z,0
2022-10-29T11:59:44.052Z,0
2022-10-29T12:00:44.118Z,0
2022-10-29T12:01:44.001Z,0
2022-10-29T12:02:44.024Z,0
2022-10-29T12:03:43.976Z,0
2022-10-29T12:04:43.979Z,0
2022-10-29T12:05:43.979Z,0
2022-10-29T12:06:43.954Z,0
2022-10-29T12:07:43.977Z,0
2022-10-29T12:08:44.182Z,0
2022-10-29T12:09:44.250Z,0
2022-10-29T12:10:43.940Z,0
2022-10-29T12:11:43.918Z,0
2022-10-29T12:12:43.890Z,0
2022-10-29T12:13:43.877Z,0
2022-10-29T12:14:43.863Z,0
2022-10-29T12:15:43.882Z,0
2022-10-29T12:16:43.853Z,0
2022-10-29T12:17:43.835Z,0
2022-10-29T12:18:43.964Z,0
2022-10-29T12:19:43.830Z,0
2022-10-29T12:20:43.984Z,0
2022-10-29T12:21:43.793Z,0
2022-10-29T12:22:43.797Z,0
2022-10-29T12:23:43.794Z,0
2022-10-29T12:24:43.764Z,0
2022-10-29T12:25:43.789Z,0
2022-10-29T12:26:43.748Z,0
2022-10-29T12:27:43.732Z,0
2022-10-29T12:28:43.738Z,0
2022-10-29T12:29:43.711Z,0
2022-10-29T12:30:43.755Z,0
2022-10-29T12:31:43.756Z,0
2022-10-29T12:32:43.695Z,0
2022-10-29T12:33:43.709Z,0
2022-10-29T12:34:44.056Z,0
2022-10-29T12:35:44.651Z,0
2022-10-29T12:36:43.653Z,0
2022-10-29T12:37:43.638Z,0
2022-10-29T12:38:43.673Z,0
2022-10-29T12:39:43.620Z,0
2022-10-29T12:40:43.668Z,0
2022-10-29T12:41:43.589Z,0
2022-10-29T12:42:43.577Z,0
2022-10-29T12:43:43.574Z,0
2022-10-29T12:44:43.619Z,0
2022-10-29T12:45:43.580Z,0
2022-10-29T12:46:43.547Z,0
2022-10-29T12:47:43.537Z,0
2022-10-29T12:48:43.543Z,0
2022-10-29T12:49:43.511Z,0
2022-10-29T12:50:43.499Z,0
2022-10-29T12:51:43.500Z,0
2022-10-29T12:52:43.507Z,0
2022-10-29T12:53:43.476Z,0
2022-10-29T12:54:43.460Z,0
2022-10-29T12:55:43.436Z,0
2022-10-29T12:56:43.423Z,0
2022-10-29T12:57:43.523Z,0
2022-10-29T12:58:43.410Z,0
2022-10-29T12:59:43.392Z,0
2022-10-29T13:00:43.403Z,0
2022-10-29T13:01:43.368Z,0
2022-10-29T13:02:43.399Z,0
2022-10-29T13:03:43.356Z,0
2022-10-29T13:04:43.362Z,0
2022-10-29T13:05:43.327Z,0
2022-10-29T13:06:43.448Z,0
2022-10-29T13:07:43.336Z,0
2022-10-29T13:08:43.295Z,0
2022-10-29T13:09:43.289Z,0
2022-10-29T13:10:43.300Z,0
2022-10-29T13:11:43.265Z,0
2022-10-29T13:12:43.260Z,0
2022-10-29T13:13:43.239Z,0
2022-10-29T13:14:43.232Z,0
2022-10-29T13:15:43.230Z,0
2022-10-29T13:16:43.205Z,0
2022-10-29T13:17:43.226Z,0
2022-10-29T13:18:43.194Z,0
2022-10-29T13:19:43.177Z,0
2022-10-29T13:20:43.170Z,0
2022-10-29T13:21:43.157Z,0
2022-10-29T13:23:43.134Z,0
2022-10-29T13:24:43.128Z,0
2022-10-29T13:25:43.239Z,0
2022-10-29T13:26:43.099Z,0
2022-10-29T13:27:43.173Z,0
2022-10-29T13:28:43.183Z,0
2022-10-29T13:29:43.100Z,0
2022-10-29T13:30:43.079Z,0
2022-10-29T13:31:43.061Z,0
2022-10-29T13:32:43.055Z,0
2022-10-29T13:33:43.033Z,0
2022-10-29T13:34:43.106Z,0
2022-10-29T13:35:43.016Z,0
2022-10-29T13:36:43.004Z,0
2022-10-29T13:37:42.998Z,0
2022-10-29T13:38:42.987Z,0
2022-10-29T13:39:42.989Z,0
2022-10-29T13:40:42.960Z,0
2022-10-29T13:41:42.949Z,0
2022-10-29T13:42:42.942Z,0
2022-10-29T13:43:42.934Z,0
2022-10-29T13:44:42.930Z,0
2022-10-29T13:45:42.917Z,0
2022-10-29T13:46:42.903Z,0
2022-10-29T13:47:42.894Z,0
2022-10-29T13:48:42.884Z,0
2022-10-29T13:49:42.870Z,0
2022-10-29T13:50:42.857Z,0
2022-10-29T13:51:42.857Z,0
2022-10-29T13:52:42.836Z,0
2022-10-29T13:53:42.839Z,0
2022-10-29T13:54:42.815Z,0
2022-10-29T13:55:42.814Z,0
2022-10-29T13:56:42.798Z,0
2022-10-29T13:57:42.833Z,0
2022-10-29T13:58:42.779Z,0
2022-10-29T13:59:42.764Z,0
2022-10-29T14:00:42.751Z,0
2022-10-29T14:01:42.747Z,0
2022-10-29T14:02:42.732Z,0
2022-10-29T14:03:42.727Z,0
2022-10-29T14:04:42.736Z,0
2022-10-29T14:05:42.722Z,0
2022-10-29T14:06:42.692Z,0
2022-10-29T14:07:42.721Z,0
2022-10-29T14:08:42.667Z,0
2022-10-29T14:09:42.657Z,0
2022-10-29T14:10:42.645Z,0
2022-10-29T14:11:42.665Z,0
2022-10-29T14:12:42.625Z,0
2022-10-29T14:13:42.623Z,0
2022-10-29T14:14:42.604Z,0
2022-10-29T14:15:42.594Z,0
2022-10-29T14:16:42.579Z,0
2022-10-29T14:17:42.589Z,0
2022-10-29T14:18:42.562Z,0
2022-10-29T14:19:42.548Z,0
2022-10-29T14:20:42.546Z,0
2022-10-29T14:21:42.533Z,0
2022-10-29T14:22:42.518Z,0
2022-10-29T14:23:42.531Z,0
2022-10-29T14:24:42.497Z,0
2022-10-29T14:25:42.493Z,0
2022-10-29T14:26:42.483Z,0
2022-10-29T14:27:42.509Z,0
2022-10-29T14:28:42.454Z,0
2022-10-29T14:29:42.447Z,0
2022-10-29T14:30:42.461Z,0
2022-10-29T14:31:42.426Z,0
2022-10-29T14:32:42.422Z,0
2022-10-29T14:33:42.403Z,0
2022-10-29T14:34:42.391Z,0
2022-10-29T14:35:42.379Z,0
2022-10-29T14:36:42.385Z,0
2022-10-29T14:37:42.361Z,0
2022-10-29T14:38:42.355Z,0
2022-10-29T14:39:42.338Z,0
2022-10-29T14:40:42.334Z,0
2022-10-29T14:41:42.314Z,0
2022-10-29T14:42:42.321Z,0
2022-10-29T14:43:42.294Z,0
2022-10-29T14:44:42.288Z,0
2022-10-29T14:45:42.276Z,0
2022-10-29T14:46:42.273Z,0
2022-10-29T14:47:42.266Z,0
2022-10-29T14:48:42.255Z,0
2022-10-29T14:49:42.238Z,0
2022-10-29T14:50:42.232Z,0
2022-10-29T14:51:42.215Z,0
2022-10-29T14:52:42.209Z,0
2022-10-29T14:53:42.195Z,0
2022-10-29T14:54:42.214Z,0
2022-10-29T14:55:42.169Z,0
2022-10-29T14:56:42.165Z,0
2022-10-29T14:57:42.151Z,0
2022-10-29T14:58:42.140Z,0
2022-10-29T14:59:42.170Z,0
2022-10-29T15:00:42.129Z,0
2022-10-29T15:01:42.103Z,0
2022-10-29T15:02:42.098Z,0
2022-10-29T15:03:42.081Z,0
2022-10-29T15:04:42.091Z,0
2022-10-29T15:05:42.066Z,0
2022-10-29T15:06:42.066Z,0
2022-10-29T15:07:42.039Z,0
2022-10-29T15:08:42.035Z,0
2022-10-29T15:09:42.036Z,0
2022-10-29T15:10:42.011Z,0
2022-10-29T15:11:42.004Z,0
2022-10-29T15:12:42.005Z,0
2022-10-29T15:13:41.984Z,0
2022-10-29T15:14:41.979Z,0
2022-10-29T15:15:41.963Z,0
2022-10-29T15:16:41.950Z,0
2022-10-29T15:17:41.944Z,0
2022-10-29T15:18:41.949Z,0
2022-10-29T15:19:41.922Z,0
2022-10-29T15:20:41.909Z,0
2022-10-29T15:21:41.910Z,0
2022-10-29T15:22:41.881Z,0
2022-10-29T15:23:41.879Z,0
2022-10-29T15:24:41.864Z,0
2022-10-29T15:25:41.862Z,0
2022-10-29T15:26:41.843Z,0
2022-10-29T15:27:41.833Z,0
2022-10-29T15:28:41.824Z,0
2022-10-29T15:29:41.808Z,0
2022-10-29T15:30:41.799Z,0
2022-10-29T15:31:41.801Z,0
2022-10-29T15:32:41.779Z,0
2022-10-29T15:33:41.767Z,0
2022-10-29T15:34:41.758Z,0
2022-10-29T15:35:41.746Z,0
2022-10-29T15:36:41.731Z,0
2022-10-29T15:37:41.733Z,0
2022-10-29T15:38:41.718Z,0
2022-10-29T15:39:41.701Z,0
2022-10-29T15:40:41.736Z,0
2022-10-29T15:41:41.680Z,0
2022-10-29T15:42:41.670Z,0
2022-10-29T15:43:41.674Z,0
2022-10-29T15:44:41.665Z,0
2022-10-29T15:45:41.645Z,0
2022-10-29T15:46:41.628Z,0
2022-10-29T15:47:41.632Z,0
2022-10-29T15:48:41.615Z,0
2022-10-29T15:49:41.609Z,0
2022-10-29T15:50:41.607Z,0
2022-10-29T15:51:41.575Z,0
2022-10-29T15:52:41.564Z,0
2022-10-29T15:53:41.558Z,0
2022-10-29T15:54:41.547Z,0
2022-10-29T15:55:41.535Z,0
2022-10-29T15:56:41.555Z,0
2022-10-29T15:57:41.528Z,0
